Observations for Trim Patrick St
| Time | AQI | Temp °C | Hum % | Pres Pa | CO μg/m³ | H₂S μg/m³ | NO μg/m³ | NO₂ μg/m³ | O₃ μg/m³ | SO₂ μg/m³ | PM1 μg/m³ | PM2.5 μg/m³ | PM10 μg/m³ |
|---|---|---|---|---|---|---|---|---|---|---|---|---|---|
| Sunday 2 August 2026 | |||||||||||||
| 02:10 | 2 | 14.4 | 72 | 38,460 | 0.26 | 4.44 | 2.14 | 28.76 | 26.45 | 0 | 8 | 13.59 | 14.95 |
| 02:09 | 2 | 14.4 | 73 | 38,460 | 0.25 | 3.95 | 1.97 | 27.17 | 27.66 | 0 | 7.14 | 11.43 | 12.57 |
| 02:08 | 2 | 14.4 | 72 | 38,460 | 0.25 | 3.38 | 1.97 | 21.94 | 28.22 | 0 | 8 | 12.89 | 14.18 |
| 02:07 | 2 | 14.4 | 72 | 38,460 | 0.25 | 7.12 | 1.85 | 22.8 | 26.31 | 0 | 8 | 12.89 | 14.17 |
| 02:06 | 2 | 14.4 | 71 | 38,460 | 0.24 | 10.83 | 1.85 | 41.51 | 10.7 | 0 | 7.14 | 13.02 | 14.33 |
| 02:05 | 2 | 14.5 | 69 | 38,460 | 0.24 | 10.71 | 1.77 | 43.45 | 8.89 | 0 | 8 | 15.3 | 16.83 |
| 02:04 | 2 | 14.5 | 72 | 38,460 | 0.24 | 10.42 | 1.81 | 54.03 | 8.11 | 0 | 8 | 13.66 | 15.03 |
| 02:03 | 2 | 14.5 | 72 | 38,460 | 0.24 | 5.12 | 1.78 | 41.26 | 14.84 | 0 | 4.57 | 10.04 | 11.05 |
| 02:02 | 2 | 14.5 | 72 | 38,460 | 0.24 | 3.46 | 1.9 | 27.93 | 26.52 | 0 | 7.14 | 12.21 | 13.43 |
| 02:01 | 2 | 14.5 | 72 | 38,460 | 0.24 | 5.22 | 1.85 | 25.02 | 29.05 | 0 | 7.14 | 13.66 | 15.03 |
| 02:00 | 2 | 14.5 | 72 | 38,460 | 0.24 | 7.67 | 2.15 | 35.81 | 20.83 | 0 | 8 | 12.24 | 13.46 |
| 01:59 | 2 | 14.5 | 71 | 38,460 | 0.25 | 10.11 | 2.15 | 43.85 | 8.14 | 0 | 7.14 | 12.99 | 14.29 |
| 01:57 | 2 | 14.5 | 71 | 38,460 | 0.23 | 3.48 | 2.26 | 33.16 | 24.31 | 0 | 8 | 12.97 | 14.27 |
| 01:55 | 2 | 14.6 | 71 | 38,460 | 0.23 | 3.04 | 1.78 | 21.85 | 29.35 | 0 | 8 | 14.41 | 15.85 |
| 01:54 | 2 | 14.6 | 71 | 38,460 | 0.23 | 5.8 | 1.88 | 29.03 | 25.55 | 0 | 9.71 | 16.62 | 18.28 |
| 01:53 | 2 | 14.6 | 71 | 38,460 | 0.24 | 7.98 | 1.83 | 45.09 | 7.63 | 0 | 6.29 | 11.58 | 12.73 |
| 01:47 | 2 | 14.6 | 71 | 38,460 | 0.23 | 6.84 | 1.77 | 36.39 | 17.93 | 0 | 8 | 12.25 | 13.47 |
| 01:46 | 2 | 14.6 | 71 | 38,460 | 0.24 | 5.64 | 1.85 | 38.08 | 17.14 | 0 | 6.29 | 10.09 | 11.1 |
| 01:45 | 2 | 14.6 | 71 | 38,460 | 0.25 | 6.34 | 1.48 | 32.76 | 22.56 | 0 | 7.14 | 12.25 | 13.47 |
| 01:44 | 2 | 14.6 | 71 | 38,460 | 0.24 | 7.82 | 1.66 | 40.37 | 13.52 | 0 | 7.14 | 11.58 | 12.73 |